createdAt,value
2018-06-23T00:01:50.598Z,58.30
2018-06-23T00:04:21.200Z,58.30
2018-06-23T00:06:50.738Z,57.60
2018-06-23T00:09:20.520Z,58.50
2018-06-23T00:11:50.882Z,57.90
2018-06-23T00:14:20.569Z,57.90
2018-06-23T00:16:49.920Z,58.50
2018-06-23T00:19:19.430Z,58.30
2018-06-23T00:21:49.564Z,57.40
2018-06-23T00:24:19.983Z,57.70
2018-06-23T00:26:49.348Z,57.70
2018-06-23T00:29:19.063Z,58.00
2018-06-23T00:31:48.384Z,58.50
2018-06-23T00:34:17.924Z,57.90
2018-06-23T00:36:47.486Z,58.80
2018-06-23T00:39:16.877Z,57.80
2018-06-23T00:41:46.063Z,58.00
2018-06-23T00:44:15.526Z,58.20
2018-06-23T00:46:45.712Z,58.30
2018-06-23T00:49:15.436Z,59.00
2018-06-23T00:51:44.819Z,56.70
2018-06-23T00:54:15.079Z,57.50
2018-06-23T00:56:44.393Z,57.30
2018-06-23T00:59:25.436Z,56.90
2018-06-23T01:01:55.410Z,57.60
2018-06-23T01:04:26.220Z,58.00
2018-06-23T01:06:56.059Z,58.10
2018-06-23T01:09:26.208Z,57.90
2018-06-23T01:11:55.887Z,58.20
2018-06-23T01:14:25.536Z,58.80
2018-06-23T01:16:54.839Z,57.90
2018-06-23T01:19:24.438Z,58.70
2018-06-23T01:21:55.540Z,59.30
2018-06-23T01:24:25.188Z,58.10
2018-06-23T01:26:54.869Z,58.90
2018-06-23T01:29:24.232Z,58.70
2018-06-23T01:31:53.872Z,57.90
2018-06-23T01:34:23.309Z,58.10
2018-06-23T01:36:52.716Z,58.40
2018-06-23T01:39:22.192Z,58.10
2018-06-23T01:41:51.493Z,58.30
2018-06-23T01:44:20.950Z,58.60
2018-06-23T01:46:50.300Z,58.90
2018-06-23T01:49:20.537Z,58.80
2018-06-23T01:51:50.014Z,59.70
2018-06-23T01:54:19.561Z,58.30
2018-06-23T01:56:50.663Z,58.40
2018-06-23T01:59:20.632Z,58.60
2018-06-23T02:01:50.095Z,58.90
2018-06-23T02:04:19.466Z,58.40
2018-06-23T02:06:49.123Z,58.60
2018-06-23T02:09:18.380Z,59.20
2018-06-23T02:11:47.838Z,59.00
2018-06-23T02:14:17.555Z,58.80
2018-06-23T02:20:02.031Z,60.70
2018-06-23T02:22:47.951Z,61.40
2018-06-23T02:28:31.696Z,60.30
2018-06-23T02:31:02.554Z,60.40
2018-06-23T02:33:33.223Z,60.30
2018-06-23T02:36:02.905Z,60.60
2018-06-23T02:38:32.245Z,62.20
2018-06-23T02:41:01.795Z,62.20
2018-06-23T02:43:32.518Z,61.80
2018-06-23T02:46:02.258Z,61.30
2018-06-23T02:48:31.827Z,61.50
2018-06-23T02:51:02.889Z,61.30
2018-06-23T02:53:33.291Z,63.30
2018-06-23T02:56:02.729Z,63.00
2018-06-23T02:58:33.087Z,61.70
2018-06-23T03:01:04.686Z,61.70
2018-06-23T03:03:34.154Z,61.90
2018-06-23T03:06:03.892Z,61.30
2018-06-23T03:08:33.327Z,60.70
2018-06-23T03:11:03.055Z,61.80
2018-06-23T03:13:33.948Z,61.30
2018-06-23T03:16:03.724Z,60.60
2018-06-23T03:18:33.619Z,61.20
2018-06-23T03:21:03.273Z,62.10
2018-06-23T03:23:34.917Z,62.00
2018-06-23T03:26:04.139Z,61.80
2018-06-23T03:28:33.786Z,61.60
2018-06-23T03:31:03.272Z,61.50
2018-06-23T03:33:32.882Z,61.80
2018-06-23T03:36:02.261Z,61.80
2018-06-23T03:38:32.163Z,61.60
2018-06-23T03:41:01.447Z,61.90
2018-06-23T03:43:31.820Z,61.90
2018-06-23T03:46:01.173Z,61.90
2018-06-23T03:48:32.360Z,62.00
2018-06-23T03:51:01.852Z,62.50
2018-06-23T03:53:31.565Z,62.70
2018-06-23T03:56:01.727Z,62.80
2018-06-23T03:58:31.677Z,63.20
2018-06-23T04:01:02.086Z,63.60
2018-06-23T04:03:32.144Z,64.40
2018-06-23T04:06:01.791Z,63.30
2018-06-23T04:08:31.310Z,63.70
2018-06-23T04:11:00.757Z,64.60
2018-06-23T04:13:30.283Z,64.80
2018-06-23T04:15:59.921Z,64.70
2018-06-23T04:18:29.372Z,65.10
2018-06-23T04:20:58.904Z,65.60
2018-06-23T04:23:28.997Z,65.10
2018-06-23T04:25:58.704Z,65.10
2018-06-23T04:28:28.244Z,65.70
2018-06-23T04:30:57.911Z,65.50
2018-06-23T04:33:28.161Z,66.20
2018-06-23T04:35:58.556Z,66.60
2018-06-23T04:38:29.354Z,66.60
2018-06-23T04:41:00.783Z,66.90
2018-06-23T04:43:29.994Z,67.40
2018-06-23T04:45:59.544Z,67.80
2018-06-23T04:48:29.791Z,67.00
2018-06-23T04:50:59.535Z,67.60
2018-06-23T04:53:29.335Z,67.70
2018-06-23T04:55:58.848Z,67.20
2018-06-23T04:58:29.164Z,67.70
2018-06-23T05:00:59.575Z,67.30
2018-06-23T05:03:29.257Z,67.20
2018-06-23T05:05:58.928Z,67.80
2018-06-23T05:08:28.405Z,68.50
2018-06-23T05:10:57.995Z,68.70
2018-06-23T05:13:27.641Z,68.60
2018-06-23T05:15:57.341Z,68.40
2018-06-23T05:18:26.598Z,69.00
2018-06-23T05:20:57.260Z,69.80
2018-06-23T05:23:27.104Z,69.70
2018-06-23T05:25:56.954Z,70.00
2018-06-23T05:28:26.566Z,70.10
2018-06-23T05:30:56.023Z,69.40
2018-06-23T05:33:25.704Z,69.60
2018-06-23T05:35:56.347Z,69.20
2018-06-23T05:38:26.699Z,69.60
2018-06-23T05:40:55.983Z,69.60
2018-06-23T05:43:25.608Z,69.80
2018-06-23T05:45:55.233Z,70.30
2018-06-23T05:48:25.227Z,70.40
2018-06-23T05:50:54.831Z,70.20
2018-06-23T05:53:24.425Z,70.10
2018-06-23T05:55:53.972Z,70.30
2018-06-23T05:58:23.344Z,70.10
2018-06-23T06:00:53.021Z,70.60
2018-06-23T06:03:22.306Z,70.60
2018-06-23T06:05:53.480Z,70.60
2018-06-23T06:08:23.529Z,70.80
2018-06-23T06:10:53.605Z,70.90
2018-06-23T06:13:23.980Z,70.70
2018-06-23T06:15:53.742Z,70.60
2018-06-23T06:18:23.885Z,70.40
2018-06-23T06:20:53.488Z,70.40
2018-06-23T06:23:22.988Z,70.40
2018-06-23T06:25:52.845Z,70.30
2018-06-23T06:28:23.295Z,70.60
2018-06-23T06:30:53.923Z,70.30
2018-06-23T06:33:23.115Z,70.30
2018-06-23T06:35:52.591Z,70.20
2018-06-23T06:38:22.244Z,70.20
2018-06-23T06:40:51.779Z,69.90
2018-06-23T06:43:21.256Z,70.50
2018-06-23T06:45:52.567Z,69.90
2018-06-23T06:48:22.528Z,70.00
2018-06-23T06:50:52.162Z,70.00
2018-06-23T06:53:22.474Z,70.60
2018-06-23T06:55:53.499Z,70.60
2018-06-23T06:58:23.143Z,70.60
2018-06-23T07:00:53.725Z,70.50
2018-06-23T07:03:23.916Z,71.50
2018-06-23T07:05:54.675Z,70.30
2018-06-23T07:08:24.327Z,70.80
2018-06-23T07:10:53.979Z,70.80
2018-06-23T07:13:24.501Z,70.70
2018-06-23T07:15:55.001Z,71.00
2018-06-23T07:18:24.193Z,70.70
2018-06-23T07:20:53.860Z,70.40
2018-06-23T07:23:23.326Z,70.30
2018-06-23T07:25:52.564Z,70.30
2018-06-23T07:28:21.859Z,70.40
2018-06-23T07:30:51.361Z,70.40
2018-06-23T07:33:20.937Z,70.50
2018-06-23T07:35:50.137Z,70.50
2018-06-23T07:38:19.517Z,70.90
2018-06-23T07:40:48.756Z,71.30
2018-06-23T07:43:18.116Z,71.60
2018-06-23T07:45:49.343Z,71.40
2018-06-23T07:48:18.746Z,71.50
2018-06-23T07:50:48.961Z,71.50
2018-06-23T07:53:18.959Z,71.40
2018-06-23T07:55:48.480Z,71.40
2018-06-23T07:58:20.099Z,71.60
2018-06-23T08:00:49.609Z,71.60
2018-06-23T08:03:19.022Z,71.50
2018-06-23T08:05:48.751Z,71.50
2018-06-23T08:08:20.327Z,71.80
2018-06-23T08:10:49.762Z,71.80
2018-06-23T08:13:19.524Z,72.10
2018-06-23T08:15:49.876Z,72.10
2018-06-23T08:18:20.381Z,71.90
2018-06-23T08:20:49.984Z,71.90
2018-06-23T08:23:20.180Z,71.90
2018-06-23T08:25:50.090Z,72.20
2018-06-23T08:28:19.791Z,72.10
2018-06-23T08:30:49.354Z,72.10
2018-06-23T08:33:19.284Z,72.00
2018-06-23T08:35:48.912Z,72.50
2018-06-23T08:38:19.583Z,72.90
2018-06-23T08:40:50.260Z,73.40
2018-06-23T08:43:19.776Z,73.50
2018-06-23T08:45:49.224Z,72.70
2018-06-23T08:48:18.791Z,72.70
2018-06-23T08:50:49.060Z,73.60
2018-06-23T08:53:19.482Z,73.10
2018-06-23T08:55:49.108Z,73.10
2018-06-23T08:58:19.377Z,73.00
2018-06-23T09:00:49.656Z,73.30
2018-06-23T09:03:19.077Z,73.50
2018-06-23T09:05:48.541Z,73.60
2018-06-23T09:08:19.466Z,74.20
2018-06-23T09:10:49.090Z,74.10
2018-06-23T09:13:18.515Z,73.90
2018-06-23T09:15:49.268Z,74.00
2018-06-23T09:18:18.524Z,74.20
2018-06-23T09:20:48.115Z,74.20
2018-06-23T09:23:17.961Z,74.20
2018-06-23T09:25:48.002Z,74.50
2018-06-23T09:28:17.559Z,74.50
2018-06-23T09:30:46.919Z,74.50
2018-06-23T09:33:16.425Z,74.60
2018-06-23T09:35:45.978Z,74.20
2018-06-23T09:38:16.932Z,74.40
2018-06-23T09:40:46.714Z,74.40
2018-06-23T09:43:16.032Z,74.30
2018-06-23T09:45:45.846Z,74.60
2018-06-23T09:48:15.202Z,74.50
2018-06-23T09:50:44.751Z,74.70
2018-06-23T09:53:14.633Z,74.70
2018-06-23T09:55:44.522Z,74.90
2018-06-23T09:58:14.272Z,75.20
2018-06-23T10:00:43.878Z,74.80
2018-06-23T10:03:14.824Z,74.70
2018-06-23T10:05:44.592Z,74.70
2018-06-23T10:08:14.402Z,74.80
2018-06-23T10:10:44.039Z,75.10
2018-06-23T10:13:13.328Z,74.80
2018-06-23T10:15:42.906Z,74.60
2018-06-23T10:18:12.362Z,75.00
2018-06-23T10:20:41.766Z,74.90
2018-06-23T10:23:11.427Z,74.80
2018-06-23T10:25:41.021Z,74.70
2018-06-23T10:28:10.674Z,75.00
2018-06-23T10:30:40.088Z,75.00
2018-06-23T10:33:09.500Z,75.10
2018-06-23T10:35:39.019Z,75.30
2018-06-23T10:38:08.483Z,75.50
2018-06-23T10:40:37.959Z,75.80
2018-06-23T10:43:07.830Z,76.20
2018-06-23T10:45:37.543Z,76.30
2018-06-23T10:48:06.788Z,77.10
2018-06-23T10:50:36.157Z,76.50
2018-06-23T10:53:05.626Z,76.50
2018-06-23T10:55:35.963Z,76.50
2018-06-23T10:58:05.519Z,76.90
2018-06-23T11:00:34.743Z,76.80
2018-06-23T11:03:04.218Z,77.00
2018-06-23T11:05:33.946Z,77.20
2018-06-23T11:08:04.067Z,77.30
2018-06-23T11:10:33.661Z,77.40
2018-06-23T11:13:03.173Z,77.50
2018-06-23T11:15:32.491Z,77.60
2018-06-23T11:18:02.772Z,77.70
2018-06-23T11:20:33.877Z,77.50
2018-06-23T11:23:03.833Z,77.40
2018-06-23T11:25:33.925Z,77.40
2018-06-23T11:28:04.655Z,77.60
2018-06-23T11:30:35.789Z,77.50
2018-06-23T11:33:05.356Z,77.30
2018-06-23T11:35:35.096Z,77.40
2018-06-23T11:38:04.643Z,77.40
2018-06-23T11:40:34.182Z,77.30
2018-06-23T11:43:04.144Z,77.70
2018-06-23T11:45:33.717Z,78.00
2018-06-23T11:48:05.410Z,77.60
2018-06-23T11:50:35.435Z,77.70
2018-06-23T11:53:04.896Z,77.50
2018-06-23T11:55:34.199Z,77.40
2018-06-23T11:58:04.728Z,77.20
2018-06-23T12:00:37.451Z,77.50
2018-06-23T12:03:07.058Z,77.20
2018-06-23T12:05:36.728Z,77.10
2018-06-23T12:08:07.614Z,77.20
2018-06-23T12:10:38.431Z,77.20
2018-06-23T12:13:07.964Z,77.00
2018-06-23T12:15:38.061Z,77.10
2018-06-23T12:18:07.611Z,77.10
2018-06-23T12:20:37.048Z,77.90
2018-06-23T12:23:06.396Z,76.70
2018-06-23T12:25:35.985Z,76.80
2018-06-23T12:28:05.552Z,76.60
2018-06-23T12:30:34.955Z,76.30
2018-06-23T12:33:04.458Z,76.10
2018-06-23T12:35:34.250Z,75.60
2018-06-23T12:38:03.851Z,76.00
2018-06-23T12:40:33.319Z,76.60
2018-06-23T12:43:03.434Z,76.00
2018-06-23T12:45:33.516Z,75.80
2018-06-23T12:48:04.333Z,76.40
2018-06-23T12:50:33.840Z,75.70
2018-06-23T12:53:05.007Z,75.90
2018-06-23T12:55:34.697Z,75.90
2018-06-23T12:58:04.789Z,75.90
2018-06-23T13:00:34.900Z,76.30
2018-06-23T13:03:04.412Z,76.30
2018-06-23T13:05:33.825Z,76.10
2018-06-23T13:08:03.787Z,76.10
2018-06-23T13:10:33.337Z,75.80
2018-06-23T13:13:02.967Z,76.10
2018-06-23T13:15:32.751Z,75.90
2018-06-23T13:18:03.000Z,75.80
2018-06-23T13:20:32.661Z,75.20
2018-06-23T13:23:03.061Z,75.40
2018-06-23T13:25:32.400Z,75.80
2018-06-23T13:28:02.120Z,76.10
2018-06-23T13:30:32.445Z,75.40
2018-06-23T13:33:02.388Z,75.40
2018-06-23T13:35:31.686Z,75.20
2018-06-23T13:38:01.953Z,75.40
2018-06-23T13:40:31.406Z,75.50
2018-06-23T13:43:01.893Z,75.00
2018-06-23T13:45:31.479Z,75.50
2018-06-23T13:48:01.071Z,75.80
2018-06-23T13:50:30.422Z,76.00
2018-06-23T13:52:59.943Z,75.90
2018-06-23T13:55:29.466Z,75.70
2018-06-23T13:57:58.925Z,76.60
2018-06-23T14:00:28.583Z,75.70
2018-06-23T14:02:57.967Z,76.20
2018-06-23T14:05:27.877Z,76.00
2018-06-23T14:07:57.373Z,76.40
2018-06-23T14:10:27.396Z,75.80
2018-06-23T14:12:56.909Z,75.50
2018-06-23T14:15:26.147Z,75.80
2018-06-23T14:17:56.516Z,75.70
2018-06-23T14:20:26.237Z,75.30
2018-06-23T14:22:55.840Z,74.70
2018-06-23T14:25:27.379Z,75.10
2018-06-23T14:27:56.828Z,75.60
2018-06-23T14:30:26.381Z,75.50
2018-06-23T14:32:55.696Z,75.10
2018-06-23T14:35:24.981Z,75.70
2018-06-23T14:37:54.615Z,75.70
2018-06-23T14:40:24.313Z,76.00
2018-06-23T14:42:53.600Z,76.30
2018-06-23T14:45:23.119Z,76.10
2018-06-23T14:47:54.571Z,75.70
2018-06-23T14:50:24.137Z,75.40
2018-06-23T14:52:54.835Z,75.80
2018-06-23T14:55:24.757Z,75.60
2018-06-23T14:57:54.909Z,75.00
2018-06-23T15:00:24.482Z,75.00
2018-06-23T15:02:54.313Z,75.10
2018-06-23T15:05:23.947Z,75.10
2018-06-23T15:07:54.167Z,75.10
2018-06-23T15:10:34.384Z,75.40
2018-06-23T15:13:11.844Z,75.50
2018-06-23T15:15:41.334Z,75.40
2018-06-23T15:18:11.039Z,75.30
2018-06-23T15:20:40.339Z,75.40
2018-06-23T15:23:09.975Z,75.10
2018-06-23T15:25:39.421Z,75.50
2018-06-23T15:28:08.971Z,75.50
2018-06-23T15:30:39.681Z,75.40
2018-06-23T15:33:09.231Z,75.90
2018-06-23T15:35:38.563Z,75.50
2018-06-23T15:38:08.974Z,76.00
2018-06-23T15:40:39.381Z,76.90
2018-06-23T15:43:09.280Z,76.20
2018-06-23T15:45:39.245Z,76.40
2018-06-23T15:48:08.985Z,76.30
2018-06-23T15:50:38.458Z,75.80
2018-06-23T15:53:07.987Z,75.90
2018-06-23T15:55:37.428Z,75.00
2018-06-23T15:58:06.991Z,75.80
2018-06-23T16:00:36.631Z,75.20
2018-06-23T16:03:06.497Z,74.70
2018-06-23T16:05:36.017Z,74.50
2018-06-23T16:08:05.613Z,74.70
2018-06-23T16:10:35.269Z,74.30
2018-06-23T16:13:04.932Z,74.50
2018-06-23T16:15:34.427Z,74.60
2018-06-23T16:18:03.998Z,74.70
2018-06-23T16:20:33.307Z,74.50
2018-06-23T16:23:03.793Z,73.90
2018-06-23T16:25:33.726Z,73.90
2018-06-23T16:28:03.083Z,73.30
2018-06-23T16:30:32.818Z,73.90
2018-06-23T16:33:02.137Z,73.20
2018-06-23T16:35:31.759Z,72.00
2018-06-23T16:38:02.478Z,72.10
2018-06-23T16:40:31.950Z,71.80
2018-06-23T16:43:01.406Z,71.90
2018-06-23T16:45:31.897Z,72.40
2018-06-23T16:48:01.208Z,72.00
2018-06-23T16:50:31.309Z,71.10
2018-06-23T16:53:00.789Z,71.00
2018-06-23T16:55:30.345Z,70.30
2018-06-23T16:58:00.294Z,70.80
2018-06-23T17:00:30.281Z,70.80
2018-06-23T17:03:00.815Z,70.90
2018-06-23T17:05:30.155Z,70.40
2018-06-23T17:08:00.559Z,70.70
2018-06-23T17:10:30.442Z,71.40
2018-06-23T17:13:00.065Z,70.30
2018-06-23T17:15:29.943Z,69.90
2018-06-23T17:17:59.488Z,70.40
2018-06-23T17:20:29.764Z,69.90
2018-06-23T17:22:59.753Z,69.80
2018-06-23T17:25:29.305Z,68.60
2018-06-23T17:27:58.863Z,68.80
2018-06-23T17:30:28.865Z,68.70
2018-06-23T17:32:59.605Z,67.20
2018-06-23T17:35:31.051Z,65.50
2018-06-23T17:38:00.787Z,65.50
2018-06-23T17:40:30.633Z,65.20
2018-06-23T17:43:00.872Z,61.40
2018-06-23T17:45:39.686Z,59.00
2018-06-23T17:48:09.818Z,59.30
2018-06-23T17:50:39.496Z,58.60
2018-06-23T17:53:09.191Z,58.90
2018-06-23T17:55:38.724Z,59.00
2018-06-23T17:58:08.119Z,59.20
2018-06-23T18:00:37.941Z,59.40
2018-06-23T18:03:07.571Z,59.50
2018-06-23T18:05:38.152Z,59.00
2018-06-23T18:08:08.136Z,56.20
2018-06-23T18:10:39.094Z,57.50
2018-06-23T18:13:08.616Z,58.20
2018-06-23T18:15:39.190Z,59.40
2018-06-23T18:18:08.860Z,58.50
2018-06-23T18:20:38.199Z,53.80
2018-06-23T18:23:07.791Z,54.00
2018-06-23T18:25:45.369Z,55.30
2018-06-23T18:28:15.048Z,53.70
2018-06-23T18:30:45.411Z,55.10
2018-06-23T18:33:15.030Z,55.00
2018-06-23T18:35:44.783Z,55.90
2018-06-23T18:38:14.370Z,55.90
2018-06-23T18:40:44.281Z,57.80
2018-06-23T18:43:13.633Z,57.40
2018-06-23T18:45:43.211Z,57.60
2018-06-23T18:48:12.724Z,59.40
2018-06-23T18:50:42.627Z,61.70
2018-06-23T18:53:12.016Z,61.00
2018-06-23T18:55:41.567Z,61.40
2018-06-23T18:58:10.937Z,61.30
2018-06-23T19:00:41.051Z,59.70
2018-06-23T19:03:11.290Z,59.80
2018-06-23T19:05:40.812Z,59.80
2018-06-23T19:08:10.447Z,59.00
2018-06-23T19:10:40.061Z,58.70
2018-06-23T19:13:09.362Z,57.80
2018-06-23T19:15:38.942Z,54.30
2018-06-23T19:18:08.610Z,53.30
2018-06-23T19:20:38.239Z,52.80
2018-06-23T19:23:07.705Z,53.40
2018-06-23T19:25:39.462Z,51.60
2018-06-23T19:28:09.269Z,51.80
2018-06-23T19:30:38.603Z,51.20
2018-06-23T19:33:08.054Z,52.40
2018-06-23T19:35:37.680Z,54.30
2018-06-23T19:38:08.172Z,54.60
2018-06-23T19:40:37.868Z,55.20
2018-06-23T19:43:07.473Z,55.90
2018-06-23T19:45:36.969Z,55.90
2018-06-23T19:48:06.830Z,57.00
2018-06-23T19:50:36.322Z,57.20
2018-06-23T19:53:05.893Z,57.00
2018-06-23T19:55:35.452Z,56.10
2018-06-23T19:58:05.761Z,55.40
2018-06-23T20:00:36.711Z,55.70
2018-06-23T20:03:06.228Z,55.70
2018-06-23T20:05:36.789Z,56.00
2018-06-23T20:08:06.478Z,55.60
2018-06-23T20:10:37.270Z,56.70
2018-06-23T20:13:08.528Z,56.60
2018-06-23T20:15:38.346Z,56.50
2018-06-23T20:18:07.726Z,55.20
2018-06-23T20:20:37.461Z,55.70
2018-06-23T20:23:07.159Z,56.60
2018-06-23T20:25:40.535Z,57.10
2018-06-23T20:28:13.281Z,56.70
2018-06-23T20:30:42.508Z,58.60
2018-06-23T20:33:11.852Z,58.90
2018-06-23T20:35:42.118Z,60.00
2018-06-23T20:38:11.786Z,60.20
2018-06-23T20:40:42.575Z,60.90
2018-06-23T20:43:12.825Z,61.30
2018-06-23T20:45:43.071Z,60.90
2018-06-23T20:48:13.105Z,62.20
2018-06-23T20:50:42.515Z,63.20
2018-06-23T20:53:12.165Z,63.10
2018-06-23T20:55:41.697Z,63.00
2018-06-23T20:58:11.353Z,62.90
2018-06-23T21:00:41.550Z,64.40
2018-06-23T21:03:11.558Z,64.20
2018-06-23T21:05:41.067Z,63.70
2018-06-23T21:08:10.514Z,63.80
2018-06-23T21:10:39.890Z,63.70
2018-06-23T21:13:09.704Z,63.30
2018-06-23T21:15:39.136Z,63.60
2018-06-23T21:18:09.874Z,63.30
2018-06-23T21:20:40.340Z,62.40
2018-06-23T21:23:09.827Z,62.30
2018-06-23T21:25:41.504Z,62.60
2018-06-23T21:28:12.178Z,62.10
2018-06-23T21:30:42.467Z,60.60
2018-06-23T21:33:11.947Z,61.30
2018-06-23T21:35:41.588Z,61.20
2018-06-23T21:38:11.072Z,61.70
2018-06-23T21:40:40.600Z,61.70
2018-06-23T21:43:10.320Z,61.10
2018-06-23T21:45:41.580Z,60.90
2018-06-23T21:48:15.238Z,61.10
2018-06-23T21:50:46.675Z,61.00
2018-06-23T21:53:16.410Z,60.80
2018-06-23T21:55:45.563Z,59.80
2018-06-23T21:58:16.494Z,60.30
2018-06-23T22:00:45.812Z,60.80
2018-06-23T22:03:15.040Z,60.00
2018-06-23T22:05:44.529Z,59.40
2018-06-23T22:08:14.141Z,58.40
2018-06-23T22:10:43.739Z,58.60
2018-06-23T22:13:13.035Z,58.40
2018-06-23T22:15:42.553Z,58.80
2018-06-23T22:18:13.991Z,58.00
2018-06-23T22:20:43.603Z,58.00
2018-06-23T22:23:13.196Z,58.30
2018-06-23T22:25:42.672Z,58.60
2018-06-23T22:28:12.251Z,58.40
2018-06-23T22:30:41.863Z,59.00
2018-06-23T22:33:11.588Z,57.80
2018-06-23T22:35:41.067Z,58.70
2018-06-23T22:38:10.412Z,58.10
2018-06-23T22:40:41.240Z,57.10
2018-06-23T22:43:10.847Z,57.30
2018-06-23T22:45:41.156Z,56.80
2018-06-23T22:48:10.640Z,57.10
2018-06-23T22:50:40.573Z,55.70
2018-06-23T22:53:11.268Z,54.70
2018-06-23T22:55:40.855Z,54.00
2018-06-23T22:58:11.194Z,53.90
2018-06-23T23:00:40.892Z,53.90
2018-06-23T23:03:10.763Z,53.30
2018-06-23T23:05:41.310Z,53.00
2018-06-23T23:08:12.076Z,52.40
2018-06-23T23:10:41.632Z,53.90
2018-06-23T23:13:10.792Z,54.80
2018-06-23T23:15:40.521Z,54.70
2018-06-23T23:18:09.969Z,53.90
2018-06-23T23:20:39.636Z,55.20
2018-06-23T23:23:09.159Z,56.20
2018-06-23T23:25:40.467Z,54.70
2018-06-23T23:28:09.899Z,56.20
2018-06-23T23:30:39.563Z,55.90
2018-06-23T23:33:09.153Z,55.60
2018-06-23T23:35:38.622Z,53.90
2018-06-23T23:38:08.015Z,54.70
2018-06-23T23:40:37.910Z,54.30
2018-06-23T23:43:08.222Z,53.40
2018-06-23T23:45:37.734Z,55.10
2018-06-23T23:48:07.430Z,55.30
2018-06-23T23:50:36.982Z,54.20
2018-06-23T23:53:06.722Z,54.00
2018-06-23T23:55:36.232Z,53.30
2018-06-23T23:58:07.271Z,54.00
